Archival Weather

Phoenix Deer Valley

Phoenix, Arizona (KDVT)

Report from: Wednesday, December 6, 2023 8:53 AM MST
Current time: Wednesday, April 24, 2024 11:37 AM MST

Current weather – Weather history – Daily summaries
Weather forecast

Temperature18.3°C (64.9°F)
Dew point0.6°C (33.1°F)
Winds 6 kts (3.1 m/s, 6.9 mph) Northeast (50°)
Visibility10 mi. (16.1 km)
Clouds Sky clear
Altimeter30.13 in.Hg (1020 mB)
Relative humidity30 %
Density altitude297 ft. (90 m)
Sea-level pressure101.9 kPa (1019 mB, 30.09 in.Hg)
Remarks Automated weather observing station with precipitation discriminator
Flight conditions Visual Meteorological Conditions
Raw dataKDVT 061553Z 05006KT 10SM CLR 18/01 A3013 RMK AO2 SLP189 T01830006
An error has occurred. This application may no longer respond until reloaded. Reload 🗙